createdAt,value
2023-04-21T00:01:30.461Z,30.40
2023-04-21T00:04:02.618Z,30.40
2023-04-21T00:06:34.595Z,30.40
2023-04-21T00:09:06.570Z,30.50
2023-04-21T00:11:38.105Z,30.50
2023-04-21T00:14:09.232Z,30.50
2023-04-21T00:16:41.102Z,30.60
2023-04-21T00:19:13.600Z,30.60
2023-04-21T00:21:44.875Z,30.50
2023-04-21T00:24:15.881Z,30.50
2023-04-21T00:26:46.957Z,30.50
2023-04-21T00:29:18.316Z,30.60
2023-04-21T00:31:50.051Z,30.70
2023-04-21T00:34:21.041Z,30.70
2023-04-21T00:36:52.369Z,30.80
2023-04-21T00:39:24.137Z,30.90
2023-04-21T00:41:55.299Z,30.90
2023-04-21T00:44:26.681Z,30.90
2023-04-21T00:46:57.757Z,31.00
2023-04-21T00:49:28.966Z,31.00
2023-04-21T00:52:00.557Z,31.10
2023-04-21T00:54:31.964Z,31.10
2023-04-21T00:57:03.276Z,31.10
2023-04-21T00:59:34.713Z,31.10
2023-04-21T01:02:07.530Z,31.20
2023-04-21T01:04:40.373Z,31.20
2023-04-21T01:07:11.727Z,31.20
2023-04-21T01:09:43.020Z,31.20
2023-04-21T01:12:15.036Z,31.20
2023-04-21T01:14:46.277Z,31.20
2023-04-21T01:17:18.934Z,31.20
2023-04-21T01:19:50.961Z,31.20
2023-04-21T01:22:22.344Z,31.20
2023-04-21T01:24:53.334Z,31.30
2023-04-21T01:27:24.342Z,31.30
2023-04-21T01:29:55.877Z,31.40
2023-04-21T01:32:30.423Z,31.40
2023-04-21T01:35:02.141Z,31.50
2023-04-21T01:37:35.040Z,31.60
2023-04-21T01:40:08.650Z,31.60
2023-04-21T01:42:42.032Z,31.70
2023-04-21T01:45:13.987Z,31.70
2023-04-21T01:47:45.785Z,31.80
2023-04-21T01:50:17.260Z,31.90
2023-04-21T01:52:48.304Z,32.00
2023-04-21T01:55:19.433Z,32.20
2023-04-21T01:57:50.708Z,32.30
2023-04-21T02:00:22.256Z,32.40
2023-04-21T02:02:53.332Z,32.50
2023-04-21T02:05:24.831Z,32.60
2023-04-21T02:07:55.999Z,32.80
2023-04-21T02:10:27.024Z,32.80
2023-04-21T02:12:58.020Z,32.80
2023-04-21T02:15:29.486Z,32.90
2023-04-21T02:18:00.820Z,33.00
2023-04-21T02:20:31.897Z,33.10
2023-04-21T02:23:02.814Z,33.20
2023-04-21T02:25:34.245Z,33.30
2023-04-21T02:28:05.705Z,33.40
2023-04-21T02:30:37.266Z,33.50
2023-04-21T02:33:08.266Z,33.60
2023-04-21T02:35:39.554Z,33.60
2023-04-21T02:38:11.551Z,33.70
2023-04-21T02:40:43.696Z,33.80
2023-04-21T02:43:16.131Z,33.90
2023-04-21T02:45:47.290Z,33.90
2023-04-21T02:48:19.919Z,34.00
2023-04-21T02:50:51.775Z,34.00
2023-04-21T02:53:25.633Z,34.20
2023-04-21T02:55:56.806Z,34.20
2023-04-21T02:58:27.808Z,34.30
2023-04-21T03:01:00.189Z,34.40
2023-04-21T03:03:31.692Z,34.60
2023-04-21T03:06:04.282Z,34.70
2023-04-21T03:08:35.367Z,34.80
2023-04-21T03:11:26.705Z,34.80
2023-04-21T03:13:57.760Z,34.90
2023-04-21T03:16:29.373Z,35.00
2023-04-21T03:19:00.397Z,35.10
2023-04-21T03:21:32.656Z,35.20
2023-04-21T03:24:03.840Z,35.30
2023-04-21T03:26:34.997Z,35.30
2023-04-21T03:29:05.983Z,35.30
2023-04-21T03:31:36.971Z,35.20
2023-04-21T03:34:08.060Z,35.20
2023-04-21T03:36:39.145Z,35.20
2023-04-21T03:39:19.714Z,35.30
2023-04-21T03:41:42.898Z,35.50
2023-04-21T03:44:13.855Z,35.60
2023-04-21T03:46:44.856Z,35.70
2023-04-21T03:49:15.816Z,35.90
2023-04-21T03:51:46.806Z,33.30
2023-04-21T03:54:18.017Z,36.00
2023-04-21T03:56:48.996Z,36.10
2023-04-21T03:59:20.220Z,36.20
2023-04-21T04:01:51.750Z,36.30
2023-04-21T04:04:22.914Z,36.30
2023-04-21T04:06:54.307Z,36.40
2023-04-21T04:09:25.283Z,36.50
2023-04-21T04:11:56.240Z,36.60
2023-04-21T04:14:27.224Z,36.60
2023-04-21T04:16:58.616Z,36.60
2023-04-21T04:19:33.957Z,36.70
2023-04-21T04:22:05.361Z,36.70
2023-04-21T04:24:37.531Z,36.80
2023-04-21T04:27:08.918Z,36.80
2023-04-21T04:29:39.892Z,36.80
2023-04-21T04:32:12.228Z,36.90
2023-04-21T04:34:43.362Z,36.90
2023-04-21T04:37:14.348Z,37.10
2023-04-21T04:39:45.448Z,37.10
2023-04-21T04:42:16.702Z,37.10
2023-04-21T04:44:48.205Z,37.10
2023-04-21T04:47:19.196Z,37.10
2023-04-21T04:49:50.246Z,37.20
2023-04-21T04:52:21.234Z,37.20
2023-04-21T04:54:52.217Z,37.30
2023-04-21T04:57:23.847Z,37.30
2023-04-21T04:59:58.799Z,37.40
2023-04-21T05:02:29.867Z,37.50
2023-04-21T05:05:01.602Z,37.50
2023-04-21T05:07:32.636Z,37.50
2023-04-21T05:10:06.587Z,37.50
2023-04-21T05:12:37.545Z,37.60
2023-04-21T05:15:10.271Z,37.70
2023-04-21T05:20:31.349Z,37.70
2023-04-21T05:23:02.533Z,37.70
2023-04-21T05:25:33.935Z,37.70
2023-04-21T05:28:05.026Z,37.80
2023-04-21T05:30:36.491Z,37.90
2023-04-21T05:33:07.510Z,38.00
2023-04-21T05:35:39.006Z,38.00
2023-04-21T05:38:10.003Z,38.00
2023-04-21T05:40:40.964Z,38.10
2023-04-21T05:43:12.635Z,38.20
2023-04-21T05:45:43.713Z,38.20
2023-04-21T05:48:14.986Z,38.30
2023-04-21T05:50:45.992Z,38.30
2023-04-21T05:53:17.359Z,38.30
2023-04-21T05:55:48.889Z,38.40
2023-04-21T05:58:20.493Z,38.40
2023-04-21T06:00:52.376Z,38.40
2023-04-21T06:03:23.464Z,38.40
2023-04-21T06:06:02.214Z,38.40
2023-04-21T06:08:33.470Z,38.40
2023-04-21T06:11:04.462Z,38.50
2023-04-21T06:13:37.450Z,38.60
2023-04-21T06:16:08.622Z,38.60
2023-04-21T06:18:40.536Z,38.60
2023-04-21T06:21:11.639Z,38.60
2023-04-21T06:23:43.444Z,38.60
2023-04-21T06:26:15.353Z,38.70
2023-04-21T06:28:46.775Z,38.70
2023-04-21T06:31:17.823Z,38.70
2023-04-21T06:33:49.402Z,38.70
2023-04-21T06:36:20.565Z,38.60
2023-04-21T06:38:51.553Z,38.50
2023-04-21T06:41:24.741Z,38.40
2023-04-21T06:43:55.050Z,38.30
2023-04-21T06:46:26.093Z,38.30
2023-04-21T06:48:57.239Z,38.20
2023-04-21T06:51:29.765Z,38.20
2023-04-21T06:54:00.868Z,38.20
2023-04-21T06:56:31.877Z,38.20
2023-04-21T06:59:02.846Z,38.20
2023-04-21T07:01:34.525Z,38.20
2023-04-21T07:04:07.389Z,38.20
2023-04-21T07:06:38.785Z,38.20
2023-04-21T07:09:10.337Z,38.10
2023-04-21T07:11:41.629Z,38.10
2023-04-21T07:14:15.049Z,38.10
2023-04-21T07:16:45.404Z,38.10
2023-04-21T07:19:16.683Z,38.10
2023-04-21T07:27:30.195Z,38.10
2023-04-21T07:30:01.760Z,38.10
2023-04-21T07:32:33.408Z,38.00
2023-04-21T07:35:04.401Z,38.10
2023-04-21T07:37:37.012Z,38.10
2023-04-21T07:40:09.954Z,38.20
2023-04-21T07:42:41.085Z,38.20
2023-04-21T07:45:12.752Z,38.20
2023-04-21T07:47:43.929Z,38.10
2023-04-21T07:50:15.065Z,38.00
2023-04-21T07:52:46.131Z,38.00
2023-04-21T07:55:17.493Z,38.00
2023-04-21T07:57:48.953Z,38.00
2023-04-21T08:00:20.417Z,38.10
2023-04-21T08:02:52.250Z,38.00
2023-04-21T08:05:23.774Z,38.10
2023-04-21T08:07:56.211Z,38.20
2023-04-21T08:10:27.816Z,38.30
2023-04-21T08:12:59.078Z,38.30
2023-04-21T08:15:30.175Z,38.40
2023-04-21T08:18:01.606Z,38.40
2023-04-21T08:20:33.221Z,38.50
2023-04-21T08:23:04.486Z,38.50
2023-04-21T08:25:35.536Z,38.40
2023-04-21T08:28:06.979Z,38.40
2023-04-21T08:30:38.152Z,38.40
2023-04-21T08:33:11.312Z,38.40
2023-04-21T08:35:59.179Z,38.40
2023-04-21T08:38:17.446Z,38.50
2023-04-21T08:40:49.027Z,38.40
2023-04-21T08:43:20.106Z,38.40
2023-04-21T08:45:51.539Z,38.30
2023-04-21T08:48:24.812Z,38.30
2023-04-21T08:50:55.810Z,38.20
2023-04-21T08:53:26.982Z,38.10
2023-04-21T08:56:10.811Z,38.00
2023-04-21T08:58:32.970Z,37.90
2023-04-21T09:01:03.958Z,37.80
2023-04-21T09:03:35.399Z,37.70
2023-04-21T09:06:09.391Z,37.60
2023-04-21T09:08:42.848Z,37.50
2023-04-21T09:11:16.253Z,37.50
2023-04-21T09:13:47.295Z,37.40
2023-04-21T09:16:23.438Z,37.40
2023-04-21T09:18:54.983Z,37.30
2023-04-21T09:21:30.655Z,37.40
2023-04-21T09:24:02.308Z,37.40
2023-04-21T09:26:35.191Z,37.30
2023-04-21T09:29:09.008Z,37.30
2023-04-21T09:31:40.169Z,37.30
2023-04-21T09:34:27.345Z,37.20
2023-04-21T09:37:10.793Z,37.20
2023-04-21T09:39:49.586Z,37.20
2023-04-21T09:42:17.559Z,37.20
2023-04-21T09:44:53.837Z,37.10
2023-04-21T09:47:22.276Z,37.20
2023-04-21T09:49:55.354Z,37.10
2023-04-21T09:52:30.825Z,37.10
2023-04-21T09:55:06.368Z,37.10
2023-04-21T09:57:39.913Z,37.10
2023-04-21T10:00:15.339Z,37.00
2023-04-21T10:02:48.765Z,37.10
2023-04-21T10:05:20.053Z,37.00
2023-04-21T10:07:52.227Z,37.10
2023-04-21T10:10:32.254Z,37.00
2023-04-21T10:13:03.525Z,37.00
2023-04-21T10:15:37.061Z,37.00
2023-04-21T10:18:29.855Z,37.00
2023-04-21T10:21:08.699Z,37.00
2023-04-21T10:23:47.605Z,37.00
2023-04-21T10:26:24.061Z,37.00
2023-04-21T10:29:02.993Z,37.00
2023-04-21T10:31:40.209Z,37.00
2023-04-21T10:34:13.630Z,37.00
2023-04-21T10:36:52.977Z,36.90
2023-04-21T10:39:37.883Z,36.90
2023-04-21T10:42:24.893Z,36.90
2023-04-21T10:45:03.888Z,36.90
2023-04-21T10:47:54.914Z,36.90
2023-04-21T10:50:28.246Z,36.90
2023-04-21T10:53:01.121Z,36.80
2023-04-21T10:55:32.947Z,36.80
2023-04-21T10:58:06.136Z,36.80
2023-04-21T11:00:39.014Z,36.80
2023-04-21T11:03:11.770Z,36.80
2023-04-21T11:05:44.157Z,36.80
2023-04-21T11:08:16.526Z,36.70
2023-04-21T11:10:50.145Z,36.70
2023-04-21T11:13:28.568Z,36.70
2023-04-21T11:16:11.785Z,36.60
2023-04-21T11:18:46.439Z,36.60
2023-04-21T11:21:22.704Z,36.60
2023-04-21T11:24:04.509Z,36.50
2023-04-21T11:26:38.968Z,36.50
2023-04-21T11:29:11.559Z,36.50
2023-04-21T11:31:44.119Z,36.50
2023-04-21T11:34:17.408Z,36.40
2023-04-21T11:36:49.363Z,36.30
2023-04-21T11:39:22.018Z,36.30
2023-04-21T11:41:54.239Z,36.20
2023-04-21T11:44:45.573Z,36.20
2023-04-21T11:47:21.830Z,36.10
2023-04-21T11:50:01.030Z,36.10
2023-04-21T11:52:37.837Z,36.00
2023-04-21T11:55:18.698Z,35.90
2023-04-21T11:57:49.826Z,35.80
2023-04-21T12:00:23.007Z,35.70
2023-04-21T12:03:00.888Z,35.70
2023-04-21T12:05:39.887Z,35.60
2023-04-21T12:08:30.959Z,35.50
2023-04-21T12:11:13.110Z,35.50
2023-04-21T12:13:48.241Z,35.40
2023-04-21T12:16:20.958Z,35.30
2023-04-21T12:19:04.191Z,35.30
2023-04-21T12:21:37.976Z,35.30
2023-04-21T12:24:09.195Z,35.20
2023-04-21T12:26:40.161Z,35.10
2023-04-21T12:29:11.186Z,35.00
2023-04-21T12:31:42.196Z,35.00
2023-04-21T12:34:13.280Z,34.90
2023-04-21T12:36:44.309Z,34.90
2023-04-21T12:39:15.407Z,34.90
2023-04-21T12:41:46.675Z,34.80
2023-04-21T12:44:17.668Z,34.80
2023-04-21T12:46:50.042Z,34.90
2023-04-21T12:49:21.307Z,34.80
2023-04-21T12:51:52.632Z,34.80
2023-04-21T12:54:23.584Z,34.80
2023-04-21T12:56:54.668Z,34.80
2023-04-21T12:59:25.666Z,34.70
2023-04-21T13:01:57.230Z,34.70
2023-04-21T13:04:28.534Z,34.70
2023-04-21T13:07:00.426Z,34.70
2023-04-21T13:09:32.223Z,34.60
2023-04-21T13:12:03.779Z,34.70
2023-04-21T13:14:34.872Z,34.60
2023-04-21T13:17:06.291Z,34.60
2023-04-21T13:19:37.285Z,34.60
2023-04-21T13:22:08.351Z,34.60
2023-04-21T13:24:39.313Z,34.60
2023-04-21T13:27:10.457Z,34.50
2023-04-21T13:29:41.491Z,34.50
2023-04-21T13:32:12.623Z,34.50
2023-04-21T13:34:43.619Z,34.50
2023-04-21T13:37:15.999Z,34.40
2023-04-21T13:39:47.176Z,34.50
2023-04-21T13:42:18.278Z,34.40
2023-04-21T13:44:49.481Z,34.40
2023-04-21T13:47:20.463Z,34.40
2023-04-21T13:49:52.726Z,34.40
2023-04-21T13:52:23.701Z,34.40
2023-04-21T13:54:56.180Z,34.30
2023-04-21T13:57:28.048Z,34.30
2023-04-21T13:59:59.401Z,34.30
2023-04-21T14:02:30.631Z,34.20
2023-04-21T14:05:02.392Z,34.30
2023-04-21T14:07:33.884Z,34.20
2023-04-21T14:10:05.522Z,34.20
2023-04-21T14:12:36.765Z,34.20
2023-04-21T14:15:09.792Z,34.20
2023-04-21T14:17:41.031Z,34.30
2023-04-21T14:20:12.708Z,34.20
2023-04-21T14:22:43.771Z,34.20
2023-04-21T14:25:14.837Z,34.30
2023-04-21T14:27:46.145Z,34.20
2023-04-21T14:30:17.687Z,34.30
2023-04-21T14:32:48.747Z,34.30
2023-04-21T14:35:20.051Z,34.30
2023-04-21T14:37:54.685Z,34.40
2023-04-21T14:40:26.101Z,34.40
2023-04-21T14:42:58.811Z,34.40
2023-04-21T14:45:29.984Z,34.50
2023-04-21T14:48:01.542Z,34.50
2023-04-21T14:50:32.692Z,34.60
2023-04-21T14:53:08.220Z,34.60
2023-04-21T14:55:38.664Z,34.60
2023-04-21T14:58:11.204Z,34.60
2023-04-21T15:00:45.290Z,34.60
2023-04-21T15:03:27.739Z,34.70
2023-04-21T15:05:59.280Z,34.60
2023-04-21T15:08:30.286Z,34.50
2023-04-21T15:11:01.370Z,34.50
2023-04-21T15:13:32.829Z,34.50
2023-04-21T15:16:06.018Z,34.50
2023-04-21T15:18:47.808Z,34.50
2023-04-21T15:21:18.057Z,34.50
2023-04-21T15:23:50.515Z,34.50
2023-04-21T15:26:22.706Z,34.60
2023-04-21T15:28:57.796Z,34.50
2023-04-21T15:31:31.053Z,34.40
2023-04-21T15:34:02.158Z,34.40
2023-04-21T15:36:33.322Z,34.20
2023-04-21T15:39:05.040Z,34.10
2023-04-21T15:41:39.781Z,34.00
2023-04-21T15:44:16.260Z,33.90
2023-04-21T15:47:10.011Z,33.80
2023-04-21T15:49:41.068Z,33.80
2023-04-21T15:52:12.682Z,33.90
2023-04-21T15:54:43.762Z,33.90
2023-04-21T15:57:14.771Z,33.90
2023-04-21T15:59:47.234Z,34.00
2023-04-21T16:02:25.465Z,34.00
2023-04-21T16:04:59.437Z,34.00
2023-04-21T16:07:30.482Z,34.00
2023-04-21T16:10:01.658Z,34.00
2023-04-21T16:12:34.584Z,34.00
2023-04-21T16:15:22.523Z,34.00
2023-04-21T16:17:41.417Z,34.10
2023-04-21T16:20:13.452Z,34.10
2023-04-21T16:22:44.482Z,34.10
2023-04-21T16:25:20.919Z,34.10
2023-04-21T16:27:50.690Z,34.00
2023-04-21T16:30:21.785Z,34.00
2023-04-21T16:33:00.971Z,33.90
2023-04-21T16:35:32.091Z,33.80
2023-04-21T16:38:04.603Z,33.80
2023-04-21T16:40:36.727Z,33.80
2023-04-21T16:43:07.788Z,33.70
2023-04-21T16:45:42.450Z,33.60
2023-04-21T16:48:13.903Z,33.50
2023-04-21T16:50:46.425Z,33.50
2023-04-21T16:53:17.687Z,33.40
2023-04-21T16:55:48.863Z,33.30
2023-04-21T16:58:19.941Z,33.30
2023-04-21T17:00:51.016Z,33.20
2023-04-21T17:03:22.238Z,33.20
2023-04-21T17:05:53.488Z,33.10
2023-04-21T17:08:25.892Z,33.10
2023-04-21T17:10:56.866Z,33.00
2023-04-21T17:13:31.510Z,33.00
2023-04-21T17:16:03.502Z,33.00
2023-04-21T17:18:34.491Z,32.90
2023-04-21T17:21:07.185Z,32.90
2023-04-21T17:23:38.213Z,32.90
2023-04-21T17:26:12.932Z,32.90
2023-04-21T17:28:44.090Z,32.90
2023-04-21T17:31:16.364Z,32.90
2023-04-21T17:33:52.786Z,32.90
2023-04-21T17:36:26.318Z,32.90
2023-04-21T17:38:58.511Z,32.80
2023-04-21T17:41:29.706Z,32.70
2023-04-21T17:44:01.406Z,32.70
2023-04-21T17:46:32.424Z,32.70
2023-04-21T17:52:27.231Z,32.70
2023-04-21T17:55:01.288Z,32.70
2023-04-21T17:57:32.266Z,32.70
2023-04-21T18:00:03.272Z,32.70
2023-04-21T18:02:34.292Z,32.70
2023-04-21T18:13:46.810Z,32.70
2023-04-21T18:16:17.070Z,32.60
2023-04-21T18:18:48.745Z,32.60
2023-04-21T18:21:19.859Z,32.60
2023-04-21T18:23:50.843Z,32.60
2023-04-21T18:26:21.911Z,32.60
2023-04-21T18:28:52.900Z,32.60
2023-04-21T18:31:25.265Z,32.60
2023-04-21T18:33:57.682Z,32.60
2023-04-21T18:36:32.405Z,32.60
2023-04-21T18:39:01.972Z,32.50
2023-04-21T18:41:32.944Z,32.50
2023-04-21T18:44:03.910Z,32.40
2023-04-21T18:46:35.497Z,32.50
2023-04-21T18:49:06.978Z,32.40
2023-04-21T18:51:38.264Z,32.40
2023-04-21T18:54:09.290Z,32.40
2023-04-21T18:56:40.250Z,32.40
2023-04-21T18:59:11.249Z,32.30
2023-04-21T19:01:45.398Z,32.20
2023-04-21T19:04:17.822Z,32.20
2023-04-21T19:06:49.382Z,32.20
2023-04-21T19:09:20.403Z,32.20
2023-04-21T19:11:51.531Z,32.20
2023-04-21T19:14:22.509Z,32.10
2023-04-21T19:16:54.242Z,32.10
2023-04-21T19:19:27.017Z,32.10
2023-04-21T19:21:58.019Z,32.10
2023-04-21T19:24:29.025Z,32.10
2023-04-21T19:27:03.028Z,32.00
2023-04-21T19:29:34.387Z,32.00
2023-04-21T19:32:05.417Z,32.00
2023-04-21T19:34:36.723Z,31.90
2023-04-21T19:37:07.955Z,31.90
2023-04-21T19:39:38.942Z,31.90
2023-04-21T19:42:10.145Z,31.90
2023-04-21T19:44:44.116Z,31.80
2023-04-21T19:47:14.454Z,31.80
2023-04-21T19:49:47.376Z,31.80
2023-04-21T19:52:20.801Z,31.70
2023-04-21T19:54:51.874Z,31.60
2023-04-21T19:57:23.089Z,31.50
2023-04-21T19:59:54.061Z,31.50
2023-04-21T20:02:25.118Z,31.50
2023-04-21T20:04:56.260Z,31.30
2023-04-21T20:07:27.417Z,31.20
2023-04-21T20:09:58.411Z,31.10
2023-04-21T20:12:29.366Z,30.90
2023-04-21T20:15:00.378Z,30.80
2023-04-21T20:17:33.457Z,30.80
2023-04-21T20:20:05.906Z,30.70
2023-04-21T20:22:39.888Z,30.70
2023-04-21T20:25:11.789Z,30.70
2023-04-21T20:27:48.797Z,30.60
2023-04-21T20:30:18.007Z,30.60
2023-04-21T20:32:50.970Z,30.50
2023-04-21T20:35:24.095Z,30.50
2023-04-21T20:37:54.570Z,30.40
2023-04-21T20:40:25.696Z,30.40
2023-04-21T20:43:02.092Z,30.30
2023-04-21T20:45:32.772Z,30.30
2023-04-21T20:48:03.802Z,30.20
2023-04-21T20:50:35.358Z,30.10
2023-04-21T20:53:07.692Z,30.10
2023-04-21T20:55:38.766Z,30.10
2023-04-21T20:58:09.820Z,30.10
2023-04-21T21:00:43.173Z,30.10
2023-04-21T21:03:16.406Z,30.20
2023-04-21T21:05:47.566Z,30.20
2023-04-21T21:08:20.466Z,30.30
2023-04-21T21:10:51.520Z,30.30
2023-04-21T21:13:23.897Z,30.40
2023-04-21T21:15:56.628Z,30.40
2023-04-21T21:18:27.797Z,30.50
2023-04-21T21:20:58.854Z,30.50
2023-04-21T21:23:30.135Z,30.40
2023-04-21T21:26:02.482Z,30.40
2023-04-21T21:28:33.523Z,30.40
2023-04-21T21:31:04.689Z,30.30
2023-04-21T21:33:35.685Z,30.30
2023-04-21T21:36:07.204Z,30.20
2023-04-21T21:38:39.523Z,30.20
2023-04-21T21:41:11.892Z,30.10
2023-04-21T21:43:42.862Z,30.10
2023-04-21T21:46:13.913Z,30.10
2023-04-21T21:48:44.926Z,30.20
2023-04-21T21:51:17.292Z,30.20
2023-04-21T21:53:51.403Z,30.20
2023-04-21T21:56:25.184Z,30.20
2023-04-21T21:59:00.560Z,30.20
2023-04-21T22:01:31.770Z,30.30
2023-04-21T22:04:02.839Z,30.20
2023-04-21T22:06:35.471Z,30.30
2023-04-21T22:09:10.019Z,30.30
2023-04-21T22:11:43.825Z,30.30
2023-04-21T22:14:24.345Z,30.30
2023-04-21T22:16:55.490Z,30.30
2023-04-21T22:19:35.304Z,30.30
2023-04-21T22:22:12.055Z,30.20
2023-04-21T22:24:43.053Z,30.20
2023-04-21T22:27:14.054Z,30.10
2023-04-21T22:29:44.991Z,30.10
2023-04-21T22:32:16.194Z,30.00
2023-04-21T22:34:47.173Z,30.00
2023-04-21T22:37:18.167Z,29.90
2023-04-21T22:39:49.153Z,29.80
2023-04-21T22:42:20.245Z,29.80
2023-04-21T22:44:51.200Z,29.80
2023-04-21T22:47:22.219Z,29.90
2023-04-21T22:49:54.345Z,29.90
2023-04-21T22:52:26.719Z,29.90
2023-04-21T22:54:57.640Z,29.80
2023-04-21T22:57:29.300Z,29.80
2023-04-21T23:00:00.261Z,29.80
2023-04-21T23:02:31.323Z,29.70
2023-04-21T23:05:02.430Z,29.70
2023-04-21T23:07:33.821Z,29.70
2023-04-21T23:10:05.002Z,29.60
2023-04-21T23:12:36.189Z,29.60
2023-04-21T23:15:07.688Z,29.50
2023-04-21T23:17:38.663Z,29.50
2023-04-21T23:20:11.231Z,29.50
2023-04-21T23:22:42.270Z,29.50
2023-04-21T23:25:13.788Z,29.50
2023-04-21T23:27:45.169Z,29.40
2023-04-21T23:30:16.758Z,29.50
2023-04-21T23:32:47.812Z,29.50
2023-04-21T23:35:18.850Z,29.60
2023-04-21T23:37:50.277Z,29.60
2023-04-21T23:40:21.322Z,29.70
2023-04-21T23:42:52.757Z,29.70
2023-04-21T23:45:23.728Z,29.80
2023-04-21T23:47:54.754Z,29.90
2023-04-21T23:50:25.778Z,30.00
2023-04-21T23:52:57.055Z,30.10
2023-04-21T23:55:28.044Z,30.20
2023-04-21T23:57:59.128Z,30.30
